Flight Track Log - Related Links

Times and Time Zones

All times are in EDT time to prevent confusion due to time zone crossing. See the ACA831 flight status page for this flight to view local times or setup timezone preferences in your user account.

Time Position Orientation Groundspeed Altitude Reporting Facility
EDT Latitude Longitude Course Direction KTS MPH feet Rate Location/Type
Thu 04:15:32 PM 45.4540 -73.7410 215° Southwest 160 184 1,400  Level FlightAware
Thu 04:15:57 PM 45.4380 -73.7600 220° Southwest 188 216 2,600 2,727 Climbing FlightAware
Thu 04:16:27 PM 45.4160 -73.7880 222° Southwest 226 260 3,900 2,933 Climbing FlightAware
Thu 04:16:42 PM 45.4040 -73.8060 226° Southwest 240 276 4,800 3,600 Climbing FlightAware
Thu 04:16:52 PM 45.4000 -73.8210 249° West 250 288 5,400 3,900 Climbing FlightAware
Thu 04:17:22 PM 45.4000 -73.8720 270° West 266 306 7,400 4,036 Climbing FlightAware
Thu 04:17:47 PM 45.4020 -73.9160 274° West 278 320 9,100 3,600 Climbing FlightAware
Thu 04:18:32 PM 45.4050 -74.0050 273° West 323 372 11,600 3,247 Climbing FlightAware
Thu 04:19:12 PM 45.4070 -74.0950 272° West 354 407 13,700 3,388 Climbing FlightAware
Thu 04:19:57 PM 45.4100 -74.1990 272° West 372 428 16,400 3,600 Climbing FlightAware
Thu 04:20:37 PM 45.4130 -74.2970 273° West 384 442 18,800 3,529 Climbing FlightAware
Thu 04:21:22 PM 45.4150 -74.4150 271° West 396 456 21,400 3,318 Climbing FlightAware
Thu 04:22:02 PM 45.4110 -74.5200 267° West 408 470 23,500 3,040 Climbing FlightAware
Thu 04:22:37 PM 45.4090 -74.6130 268° West 419 482 25,200 2,753 Climbing FlightAware
Thu 04:23:27 PM 45.4000 -74.7530 265° West 430 495 27,400 2,600 Climbing FlightAware
Thu 04:24:07 PM 45.3780 -74.8630 254° West 441 507 29,100 2,925 Climbing FlightAware
Thu 04:24:47 PM 45.3560 -74.9720 254° West 429 494 31,300 3,035 Climbing FlightAware
Thu 04:25:32 PM 45.3300 -75.0960 253° West 424 488 33,400 1,906 Climbing FlightAware
Thu 04:26:12 PM 45.3060 -75.2010 252° West 428 493 34,000 424 Climbing FlightAware
Thu 04:26:57 PM 45.2790 -75.3160 252° West 429 494 34,000  Level FlightAware
Thu 04:27:37 PM 45.2540 -75.4240 252° West 431 496 34,000  Level FlightAware
Thu 04:28:22 PM 45.2250 -75.5440 251° West 431 496 34,000  Level FlightAware
Thu 04:28:52 PM 45.2040 -75.6300 251° West 430 495 34,000  Level FlightAware
Thu 04:29:37 PM 45.1790 -75.7360 252° West 427 491 34,000  Level FlightAware
Thu 04:30:27 PM 45.1470 -75.8750 252° West 427 491 34,000  Level FlightAware
Thu 04:31:07 PM 45.1310 -75.9840 258° West 425 489 34,000  Level FlightAware
Thu 04:31:47 PM 45.1180 -76.0960 261° West 423 487 34,000  Level FlightAware
Thu 04:32:32 PM 45.1020 -76.2160 259° West 426 490 34,000  Level FlightAware
Thu 04:33:12 PM 45.0690 -76.3130 244° Southwest 427 491 34,000  Level FlightAware
Thu 04:33:57 PM 45.0270 -76.4220 241° Southwest 427 491 34,000  Level FlightAware
Thu 04:34:37 PM 44.9910 -76.5120 241° Southwest 427 491 34,000  Level FlightAware
Thu 04:35:17 PM 44.9490 -76.6190 241° Southwest 427 491 34,000  Level FlightAware
Thu 04:36:02 PM 44.9070 -76.7250 241° Southwest 427 491 34,000  Level FlightAware
Thu 04:36:42 PM 44.8660 -76.8270 240° Southwest 426 490 34,000  Level FlightAware
Thu 04:37:27 PM 44.8240 -76.9330 241° Southwest 425 489 34,000  Level FlightAware
Thu 04:38:07 PM 44.7890 -77.0210 241° Southwest 423 487 34,000  Level FlightAware
Thu 04:38:47 PM 44.7470 -77.1260 241° Southwest 422 486 34,000 -141 Level FlightAware
Thu 04:39:32 PM 44.7050 -77.2300 240° Southwest 411 473 33,800 -776 Descending FlightAware
Thu 04:40:12 PM 44.6670 -77.3240 240° Southwest 403 464 32,900 -1,694 Descending FlightAware
Thu 04:40:57 PM 44.6260 -77.4260 241° Southwest 394 453 31,400 -1,906 Descending FlightAware
Thu 04:41:37 PM 44.5920 -77.5080 240° Southwest 389 448 30,200 -1,875 Descending FlightAware
Thu 04:42:17 PM 44.5550 -77.5980 240° Southwest 382 440 28,900 -1,771 Descending FlightAware
Thu 04:43:22 PM 44.4990 -77.7370 241° Southwest 373 429 27,100 -1,691 Descending FlightAware
Thu 04:44:07 PM 44.4610 -77.8280 240° Southwest 366 421 25,800 -1,680 Descending FlightAware
Thu 04:44:37 PM 44.4380 -77.8850 241° Southwest 361 415 25,000 -1,629 Descending FlightAware
Thu 04:45:17 PM 44.4070 -77.9650 242° Southwest 352 405 23,900 -2,118 Descending FlightAware
Thu 04:46:02 PM 44.3770 -78.0630 247° West 361 415 22,000 -2,047 Descending FlightAware
Thu 04:46:42 PM 44.3500 -78.1470 246° West 347 399 21,000 -1,553 Descending FlightAware
Thu 04:47:27 PM 44.3230 -78.2310 246° West 340 391 19,800 -1,694 Descending FlightAware
Thu 04:48:07 PM 44.2960 -78.3200 247° West 334 384 18,600 -1,760 Descending FlightAware
Thu 04:48:42 PM 44.2690 -78.3840 240° Southwest 332 382 17,600 -1,624 Descending FlightAware
Thu 04:49:32 PM 44.2250 -78.4700 234° Southwest 326 375 16,300 -1,600 Descending FlightAware
Thu 04:50:12 PM 44.1900 -78.5390 235° Southwest 321 369 15,200 -1,624 Descending FlightAware
Thu 04:50:57 PM 44.1520 -78.6130 234° Southwest 314 361 14,000 -1,553 Descending FlightAware
Thu 04:51:37 PM 44.1200 -78.6750 234° Southwest 309 356 13,000 -1,553 Descending FlightAware
Thu 04:52:22 PM 44.0810 -78.7500 234° Southwest 303 349 11,800 -1,553 Descending FlightAware
Thu 04:53:02 PM 44.0480 -78.8100 233° Southwest 302 348 10,800 -1,341 Descending FlightAware
Thu 04:53:47 PM 44.0050 -78.8750 227° Southwest 286 329 9,900 -1,200 Descending FlightAware
Thu 04:54:02 PM 43.9920 -78.8940 226° Southwest 286 329 9,600 -1,500 Descending FlightAware
Thu 04:54:27 PM 43.9690 -78.9290 228° Southwest 283 326 8,900 -1,500 Descending FlightAware
Thu 04:54:42 PM 43.9570 -78.9470 227° Southwest 283 326 8,600 -1,333 Descending FlightAware
Thu 04:55:12 PM 43.9300 -78.9880 228° Southwest 281 323 7,900 -1,440 Descending FlightAware
Thu 04:55:32 PM 43.9130 -79.0140 228° Southwest 280 322 7,400 -982 Descending FlightAware
Thu 04:56:07 PM 43.8880 -79.0590 232° Southwest 258 297 7,000 -480 Descending FlightAware
Thu 04:56:22 PM 43.8840 -79.0830 257° West 241 277 7,000 -150 Level FlightAware
Thu 04:56:47 PM 43.8870 -79.1200 276° West 231 266 6,900 -764 Descending FlightAware
Thu 04:57:17 PM 43.8940 -79.1680 281° West 227 261 6,300 -1,200 Descending FlightAware
Thu 04:57:32 PM 43.8970 -79.1900 281° West 225 259 6,000 -1,200 Descending FlightAware
Thu 04:57:47 PM 43.8990 -79.2100 278° West 228 262 5,700 -1,200 Descending FlightAware
Thu 04:58:22 PM 43.9050 -79.2610 279° West 229 264 5,000 -646 Descending FlightAware
Thu 04:58:52 PM 43.9110 -79.3060 281° West 230 265 5,000  Level FlightAware
Thu 04:59:12 PM 43.9090 -79.3340 264° West 230 265 5,000  Level FlightAware
Thu 04:59:37 PM 43.8940 -79.3630 234° Southwest 235 270 5,000  Level FlightAware
Thu 05:00:02 PM 43.8770 -79.3910 230° Southwest 223 257 5,000  Level FlightAware
Thu 05:00:17 PM 43.8670 -79.4060 227° Southwest 210 242 5,000 -450 Level FlightAware
Thu 05:00:42 PM 43.8480 -79.4300 222° Southwest 218 251 4,700 -1,067 Descending FlightAware
Thu 05:01:02 PM 43.8340 -79.4490 224° Southwest 217 250 4,200 -1,200 Descending FlightAware
Thu 05:01:27 PM 43.8170 -79.4730 226° Southwest 201 231 3,800 -1,050 Descending FlightAware
Thu 05:01:42 PM 43.8080 -79.4860 226° Southwest 190 219 3,500 -1,067 Descending FlightAware
Thu 05:02:12 PM 43.7900 -79.5130 227° Southwest 184 212 3,000 -982 Descending FlightAware
Thu 05:02:37 PM 43.7760 -79.5340 227° Southwest 186 214 2,600 -1,029 Descending FlightAware
Thu 05:02:47 PM 43.7690 -79.5430 223° Southwest 182 209 2,400 -933 Descending FlightAware
Thu 05:03:22 PM 43.7510 -79.5710 228° Southwest 171 197 1,900 -900 Descending FlightAware
Thu 05:03:47 PM 43.7360 -79.5910 224° Southwest 166 191 1,500 -873 Descending FlightAware
Thu 05:04:17 PM 43.7230 -79.6110 228° Southwest 140 161 1,100 -655 Descending FlightAware
Thu 05:04:42 PM 43.7130 -79.6270 229° Southwest 140 161 900 -327 Descending FlightAware
Thu 05:05:12 PM 43.7000 -79.6450 225° Southwest 141 162 800 -200 Descending FlightAware

Login

Don't have an account? Register now (free) for customized features, flight alerts, and more!